Time;durP1;ratioP1;P1;durP2;ratioP2;P2;SDS_P1;SDS_P2;PMS_P1;PMS_P2;Temp;Humidity;BMP_temperature;BMP_pressure;BME280_temperature;BME280_humidity;BME280_pressure;Samples;Min_cycle;Max_cycle;Signal;HPM_P1;HPM_P2
2024/02/07 00:02:11;;;;;;;1.80;0.90;;;;;;;11.31;81.20;98828.05;181495;1254;44275;-79
2024/02/07 00:06:16;;;;;;;5.70;1.20;;;;;;;11.27;80.70;98814.45;181454;1253;59765;-79
2024/02/07 00:10:19;;;;;;;2.10;1.50;;;;;;;11.29;80.77;98807.92;181462;1253;43998;-80
2024/02/07 00:14:23;;;;;;;3.10;1.10;;;;;;;11.28;80.96;98800.73;181428;1253;44047;-80
2024/02/07 00:18:26;;;;;;;1.80;1.30;;;;;;;11.34;80.65;98799.96;181481;1253;44032;-79
2024/02/07 00:22:29;;;;;;;1.20;0.80;;;;;;;11.34;81.15;98801.52;181371;1254;44249;-79
2024/02/07 00:26:35;;;;;;;1.70;1.30;;;;;;;11.32;80.81;98798.31;181676;1253;59461;-80
2024/02/07 00:30:38;;;;;;;2.60;1.30;;;;;;;11.31;80.43;98792.98;181674;1253;43832;-80
2024/02/07 00:34:42;;;;;;;5.00;1.50;;;;;;;11.32;80.89;98793.78;181649;1257;44122;-79
2024/02/07 00:38:46;;;;;;;2.40;1.50;;;;;;;11.33;80.49;98778.91;181623;1253;44086;-80
2024/02/07 00:42:51;;;;;;;1.90;1.00;;;;;;;11.28;80.79;98782.05;181501;1254;44198;-79
2024/02/07 00:46:54;;;;;;;1.80;0.80;;;;;;;11.30;80.59;98764.16;181618;1257;57043;-79
2024/02/07 00:50:57;;;;;;;4.10;2.00;;;;;;;11.26;80.32;98754.09;181614;1253;44100;-79
2024/02/07 00:55:00;;;;;;;3.30;1.60;;;;;;;11.23;80.55;98744.31;181538;1256;43835;-79
2024/02/07 00:59:03;;;;;;;4.70;1.10;;;;;;;11.25;80.80;98743.05;181537;1254;43863;-79
2024/02/07 01:03:06;;;;;;;5.00;1.60;;;;;;;11.24;80.44;98739.41;181383;1258;43894;-79
2024/02/07 01:07:10;;;;;;;4.60;1.00;;;;;;;11.22;80.66;98733.99;181626;1256;59340;-79
2024/02/07 01:11:14;;;;;;;5.00;1.30;;;;;;;11.24;79.93;98733.23;181475;1254;44189;-79
2024/02/07 01:15:17;;;;;;;2.70;1.20;;;;;;;11.26;80.10;98730.34;181528;1254;44178;-79
2024/02/07 01:19:21;;;;;;;5.20;1.40;;;;;;;11.31;80.04;98725.57;181477;1253;43933;-79
2024/02/07 01:23:24;;;;;;;1.60;1.00;;;;;;;11.31;80.97;98725.84;181685;1254;44324;-79
2024/02/07 01:27:27;;;;;;;4.40;1.40;;;;;;;11.28;81.69;98723.67;181577;1254;58035;-78
2024/02/07 01:31:30;;;;;;;3.80;1.40;;;;;;;11.26;81.83;98722.67;181541;1254;44160;-79
2024/02/07 01:35:33;;;;;;;1.50;1.10;;;;;;;11.22;81.20;98712.25;181699;1254;44032;-79
2024/02/07 01:39:36;;;;;;;1.70;0.90;;;;;;;11.21;81.49;98708.48;181423;1254;44146;-79
2024/02/07 01:43:39;;;;;;;3.00;1.80;;;;;;;11.26;81.69;98711.16;181716;1254;44120;-79
2024/02/07 01:47:42;;;;;;;3.00;1.80;;;;;;;11.28;81.62;98708.66;181712;1254;57737;-79
2024/02/07 01:51:48;;;;;;;2.30;1.00;;;;;;;11.25;81.28;98701.10;181558;1256;44242;-79
2024/02/07 01:55:51;;;;;;;1.60;0.60;;;;;;;11.30;81.56;98692.83;181481;1254;43903;-79
2024/02/07 01:59:54;;;;;;;1.00;0.90;;;;;;;11.27;81.98;98685.83;181710;1254;44224;-79
2024/02/07 02:03:57;;;;;;;1.70;0.80;;;;;;;11.22;82.68;98677.17;181500;1256;44303;-79
2024/02/07 02:08:04;;;;;;;2.30;1.00;;;;;;;11.18;82.61;98668.57;181476;1255;59647;-79
2024/02/07 02:12:08;;;;;;;2.00;1.00;;;;;;;11.12;83.18;98664.77;181742;1254;43875;-79
2024/02/07 02:16:12;;;;;;;1.90;0.70;;;;;;;11.16;83.74;98649.43;181623;1254;43958;-78
2024/02/07 02:20:15;;;;;;;3.90;1.20;;;;;;;11.17;83.79;98638.33;181507;1254;44918;-79
2024/02/07 02:24:33;;;;;;;7.00;1.20;;;;;;;11.15;84.22;98639.60;181540;1254;44004;-79
2024/02/07 02:28:52;;;;;;;2.10;1.10;;;;;;;11.11;85.52;98633.70;181724;1254;59260;-79
2024/02/07 02:32:57;;;;;;;2.60;1.70;;;;;;;11.11;85.46;98635.25;181569;1254;43975;-79
2024/02/07 02:37:02;;;;;;;4.80;1.30;;;;;;;11.08;86.11;98634.02;181564;1254;43887;-78
2024/02/07 02:41:08;;;;;;;3.10;1.50;;;;;;;11.01;87.54;98634.70;181604;1254;44053;-78
2024/02/07 02:45:11;;;;;;;3.10;1.00;;;;;;;10.93;89.67;98625.27;181596;1254;43826;-79
2024/02/07 02:49:15;;;;;;;3.40;1.30;;;;;;;10.80;89.62;98612.06;181376;1254;59535;-79
2024/02/07 02:53:18;;;;;;;1.80;0.90;;;;;;;10.72;90.38;98616.42;181337;1254;44105;-79
2024/02/07 02:57:22;;;;;;;2.00;1.10;;;;;;;10.72;91.22;98609.48;181450;1254;44144;-79
2024/02/07 03:01:28;;;;;;;2.70;1.60;;;;;;;10.64;93.36;98603.14;181547;1254;43889;-79
2024/02/07 03:05:45;;;;;;;3.70;1.50;;;;;;;10.62;93.53;98591.44;181682;1254;44053;-79
2024/02/07 03:09:49;;;;;;;1.20;0.70;;;;;;;10.55;93.40;98589.05;181507;1254;58666;-79
2024/02/07 03:13:52;;;;;;;2.90;1.70;;;;;;;10.52;92.94;98582.20;181697;1254;44054;-79
2024/02/07 03:17:56;;;;;;;2.90;1.40;;;;;;;10.51;93.53;98571.55;181647;1254;44230;-79
2024/02/07 03:21:59;;;;;;;3.30;1.90;;;;;;;10.49;93.84;98566.33;181381;1254;44180;-79
2024/02/07 03:26:06;;;;;;;3.50;1.30;;;;;;;10.46;94.14;98557.73;181424;1254;186425;-79
2024/02/07 03:30:11;;;;;;;1.70;1.10;;;;;;;10.42;93.64;98547.83;181603;1257;59819;-79
2024/02/07 03:34:14;;;;;;;2.30;1.30;;;;;;;10.47;92.02;98543.51;181489;1254;43981;-79
2024/02/07 03:38:17;;;;;;;2.20;1.30;;;;;;;10.52;91.84;98541.47;181691;1254;44258;-79
2024/02/07 03:42:21;;;;;;;2.70;1.60;;;;;;;10.56;91.97;98540.20;181669;1253;44069;-79
2024/02/07 03:46:24;;;;;;;3.40;1.50;;;;;;;10.52;91.66;98531.01;181697;1254;43849;-79
2024/02/07 03:50:27;;;;;;;8.50;2.30;;;;;;;10.54;91.70;98528.14;181519;1254;60142;-79
2024/02/07 03:54:30;;;;;;;3.20;1.20;;;;;;;10.51;91.49;98517.34;181681;1254;44142;-80
2024/02/07 03:58:33;;;;;;;4.00;1.60;;;;;;;10.53;90.91;98504.69;181659;1254;44420;-79
2024/02/07 04:02:37;;;;;;;3.30;1.90;;;;;;;10.57;90.64;98501.80;181470;1254;44215;-80
2024/02/07 04:06:40;;;;;;;6.80;2.00;;;;;;;10.59;91.18;98497.36;181441;1254;44160;-79
2024/02/07 04:10:51;;;;;;;3.00;1.90;;;;;;;10.58;89.75;98496.02;181511;1254;60181;-80
2024/02/07 05:15:40;;;;;;;4.20;2.20;;;;;;;10.90;90.59;98447.55;181637;1254;58678;-82
2024/02/07 05:19:44;;;;;;;3.30;1.10;;;;;;;10.92;91.32;98453.73;181481;1253;43942;-82
2024/02/07 05:23:48;;;;;;;1.50;1.20;;;;;;;10.90;92.08;98451.38;181695;1253;44140;-83
2024/02/07 05:27:52;;;;;;;3.20;2.00;;;;;;;10.86;92.98;98450.49;181478;1253;44094;-83
2024/02/07 05:31:55;;;;;;;2.20;1.30;;;;;;;10.79;94.03;98455.98;181509;1253;44057;-82
2024/02/07 05:35:59;;;;;;;3.70;1.90;;;;;;;10.74;95.82;98456.83;181611;1254;59780;-82
2024/02/07 05:40:03;;;;;;;3.60;1.70;;;;;;;10.65;96.76;98447.69;181577;1254;44118;-83
2024/02/07 05:44:07;;;;;;;3.50;1.50;;;;;;;10.55;97.51;98449.70;181410;1254;44146;-82
2024/02/07 05:48:10;;;;;;;4.30;1.10;;;;;;;10.49;97.97;98448.14;181510;1256;44553;-82
2024/02/07 05:52:14;;;;;;;3.20;1.30;;;;;;;10.47;99.26;98446.47;181645;1253;43953;-82
2024/02/07 05:56:19;;;;;;;2.00;1.50;;;;;;;10.38;99.74;98448.91;181432;1253;58341;-82
2024/02/07 06:00:22;;;;;;;2.00;1.60;;;;;;;10.38;100.00;98449.89;181586;1253;44027;-82
2024/02/07 06:04:25;;;;;;;2.60;1.70;;;;;;;10.27;100.00;98448.09;181646;1253;44146;-82
2024/02/07 06:08:29;;;;;;;4.10;1.20;;;;;;;10.32;100.00;98443.33;181450;1253;44089;-82
2024/02/07 06:12:32;;;;;;;4.00;1.70;;;;;;;10.30;100.00;98440.58;181612;1253;44227;-82
2024/02/07 06:16:36;;;;;;;5.40;2.10;;;;;;;10.26;100.00;98436.04;181375;1254;57520;-82
2024/02/07 06:20:40;;;;;;;2.50;1.60;;;;;;;10.27;100.00;98435.15;181653;1253;44757;-82
2024/02/07 06:24:43;;;;;;;1.90;1.40;;;;;;;10.32;100.00;98434.42;181524;1254;44400;-82
2024/02/07 06:28:46;;;;;;;6.20;2.30;;;;;;;10.34;100.00;98432.08;181461;1253;43866;-83
2024/02/07 06:32:50;;;;;;;2.50;1.30;;;;;;;10.34;100.00;98429.67;181590;1255;44157;-83
2024/02/07 06:36:53;;;;;;;3.50;1.80;;;;;;;10.30;100.00;98425.12;181526;1254;59812;-82
2024/02/07 06:40:56;;;;;;;2.30;1.20;;;;;;;10.29;100.00;98427.16;181512;1255;44050;-82
2024/02/07 06:44:59;;;;;;;3.30;1.60;;;;;;;10.29;100.00;98421.90;181456;1253;44124;-82
2024/02/07 06:49:03;;;;;;;0.90;0.90;;;;;;;10.27;100.00;98427.46;181505;1253;44103;-82
2024/02/07 06:53:06;;;;;;;5.80;1.70;;;;;;;10.34;100.00;98422.63;181425;1253;44118;-82
2024/02/07 06:57:12;;;;;;;1.40;1.00;;;;;;;10.45;100.00;98429.33;181494;1253;57221;-82
2024/02/07 07:01:16;;;;;;;1.70;1.30;;;;;;;10.47;100.00;98425.77;181434;1253;43805;-82
2024/02/07 07:05:19;;;;;;;4.90;2.30;;;;;;;10.46;100.00;98433.15;181493;1254;44095;-82
2024/02/07 07:09:22;;;;;;;2.80;1.40;;;;;;;10.50;100.00;98437.00;181615;1253;44074;-82
2024/02/07 07:13:25;;;;;;;3.60;1.30;;;;;;;10.58;100.00;98432.88;181595;1255;43913;-82
2024/02/07 07:17:28;;;;;;;2.80;1.40;;;;;;;10.64;100.00;98427.92;181686;1253;57957;-82
2024/02/07 07:21:32;;;;;;;3.50;1.90;;;;;;;10.75;100.00;98431.96;181548;1253;43875;-82
2024/02/07 07:25:35;;;;;;;3.80;1.70;;;;;;;10.71;100.00;98435.86;181555;1253;44240;-82
2024/02/07 07:29:38;;;;;;;3.60;1.80;;;;;;;10.78;100.00;98428.69;181499;1253;44103;-82
2024/02/07 07:33:41;;;;;;;3.10;0.80;;;;;;;10.81;100.00;98437.31;181598;1253;44009;-82
2024/02/07 07:37:44;;;;;;;4.30;1.40;;;;;;;10.86;100.00;98444.71;181550;1253;59498;-82
2024/02/07 07:41:47;;;;;;;3.10;1.60;;;;;;;10.87;100.00;98453.59;181666;1253;44062;-82
2024/02/07 07:45:50;;;;;;;2.70;1.70;;;;;;;10.87;100.00;98453.98;181426;1253;44191;-82
2024/02/07 07:49:53;;;;;;;3.50;1.80;;;;;;;10.84;100.00;98463.30;181633;1253;44053;-82
2024/02/07 07:53:57;;;;;;;4.70;2.00;;;;;;;10.79;100.00;98473.66;181532;1253;44304;-82
2024/02/07 07:58:00;;;;;;;2.60;1.50;;;;;;;10.74;100.00;98476.73;181561;1253;57891;-82
2024/02/07 08:02:03;;;;;;;4.60;2.70;;;;;;;10.54;100.00;98502.45;181696;1253;43959;-82
2024/02/07 08:06:09;;;;;;;2.60;0.30;;;;;;;10.06;100.00;98541.45;181619;1253;44103;-82
2024/02/07 08:10:13;;;;;;;3.70;1.30;;;;;;;9.50;100.00;98554.38;181594;1253;44103;-81
2024/02/07 08:14:16;;;;;;;2.20;0.50;;;;;;;9.17;100.00;98570.02;181442;1253;43800;-80
2024/02/07 08:18:19;;;;;;;0.90;0.70;;;;;;;9.00;100.00;98584.32;181418;1253;59041;-80
2024/02/07 08:22:22;;;;;;;0.50;0.50;;;;;;;8.77;100.00;98587.33;181445;1253;44287;-79
2024/02/07 08:26:26;;;;;;;0.40;0.30;;;;;;;8.50;100.00;98590.34;181667;1255;43765;-81
2024/02/07 08:30:29;;;;;;;0.60;0.60;;;;;;;8.30;100.00;98593.52;181696;1253;44072;-87
2024/02/07 08:34:33;;;;;;;0.40;0.40;;;;;;;7.98;100.00;98592.80;181445;1254;43869;-86
2024/02/07 08:38:37;;;;;;;0.40;0.30;;;;;;;7.60;100.00;98608.47;181771;1253;59414;-86
2024/02/07 08:42:41;;;;;;;0.10;0.10;;;;;;;7.37;100.00;98610.63;181608;1253;43915;-85
2024/02/07 08:46:46;;;;;;;0.20;0.20;;;;;;;7.23;100.00;98615.80;181494;1253;44169;-86
2024/02/07 08:50:50;;;;;;;0.90;0.70;;;;;;;7.18;100.00;98627.58;181749;1253;43938;-87
2024/02/07 08:54:53;;;;;;;1.10;0.30;;;;;;;7.14;100.00;98639.95;181710;1253;43694;-87
2024/02/07 08:58:57;;;;;;;1.50;0.70;;;;;;;7.12;100.00;98652.66;181767;1253;57912;-86
2024/02/07 09:03:01;;;;;;;1.10;0.40;;;;;;;6.97;100.00;98659.63;181558;1253;44237;-86
2024/02/07 09:07:05;;;;;;;0.30;0.30;;;;;;;6.81;100.00;98670.42;181629;1255;44186;-86
2024/02/07 09:11:09;;;;;;;0.20;0.20;;;;;;;6.63;100.00;98676.16;181530;1253;44198;-86
2024/02/07 09:15:13;;;;;;;1.00;0.30;;;;;;;6.51;100.00;98690.59;181643;1253;43901;-86
2024/02/07 09:19:17;;;;;;;0.70;0.30;;;;;;;6.39;100.00;98692.19;181573;1253;59523;-86
2024/02/07 09:23:21;;;;;;;0.20;0.10;;;;;;;6.24;100.00;98699.54;181496;1253;43966;-87
2024/02/07 09:27:25;;;;;;;0.50;0.30;;;;;;;6.13;100.00;98704.36;181566;1253;44365;-87
2024/02/07 09:31:28;;;;;;;0.30;0.10;;;;;;;6.07;100.00;98709.74;181480;1253;43768;-87
2024/02/07 09:35:32;;;;;;;0.10;0.10;;;;;;;6.03;100.00;98722.75;181547;1253;43718;-87
2024/02/07 09:39:36;;;;;;;0.10;0.10;;;;;;;5.93;100.00;98730.52;181545;1253;59301;-87
2024/02/07 09:43:39;;;;;;;0.30;0.30;;;;;;;5.92;100.00;98733.40;181560;1253;43937;-87
2024/02/07 09:47:59;;;;;;;0.30;0.30;;;;;;;5.96;100.00;98740.27;181561;1253;44097;-85
2024/02/07 09:52:05;;;;;;;0.40;0.30;;;;;;;5.93;100.00;98748.04;181657;1254;44355;-83
2024/02/07 09:56:08;;;;;;;2.10;0.60;;;;;;;5.77;100.00;98761.83;181528;1253;44072;-82
2024/02/07 10:00:12;;;;;;;0.70;0.60;;;;;;;5.60;100.00;98759.71;181386;1253;57976;-82
2024/02/07 10:04:24;;;;;;;1.00;0.60;;;;;;;5.47;100.00;98765.89;181412;1253;44273;-81
2024/02/07 10:08:32;;;;;;;1.00;0.40;;;;;;;5.41;100.00;98768.17;181572;1255;43787;-81
2024/02/07 10:12:37;;;;;;;4.00;1.10;;;;;;;5.31;100.00;98778.34;181459;1253;44177;-81
2024/02/07 10:16:40;;;;;;;3.00;0.50;;;;;;;5.28;100.00;98784.18;181543;1253;43888;-80
2024/02/07 10:20:53;;;;;;;3.40;1.40;;;;;;;5.15;100.00;98787.56;181526;1253;58201;-79
2024/02/07 10:24:57;;;;;;;1.60;1.00;;;;;;;5.11;100.00;98796.33;181495;1253;44206;-79
2024/02/07 10:29:09;;;;;;;1.40;0.60;;;;;;;5.18;100.00;98783.61;181775;1253;43762;-79
2024/02/07 10:33:44;;;;;;;0.30;0.20;;;;;;;5.25;100.00;98784.50;181921;1254;88054;-58
2024/02/07 10:37:47;;;;;;;6.00;0.70;;;;;;;5.38;100.00;98786.20;181976;1259;43298;-57
2024/02/07 10:41:52;;;;;;;2.40;1.30;;;;;;;5.52;100.00;98780.06;181804;1256;59186;-56
2024/02/07 10:46:14;;;;;;;1.70;0.80;;;;;;;5.67;100.00;98782.84;182132;1257;43684;-58
2024/02/07 10:50:23;;;;;;;1.70;0.90;;;;;;;5.78;100.00;98787.20;182175;1256;43815;-57
2024/02/07 10:54:27;;;;;;;1.60;0.80;;;;;;;5.75;100.00;98792.22;181857;1256;43334;-58
2024/02/07 10:58:32;;;;;;;2.10;1.00;;;;;;;5.78;100.00;98790.90;182218;1256;43747;-57
2024/02/07 11:02:35;;;;;;;1.40;0.80;;;;;;;5.76;100.00;98793.86;181664;1257;57474;-60
2024/02/07 11:06:44;;;;;;;4.70;1.50;;;;;;;5.70;100.00;98797.34;181877;1256;43485;-60
2024/02/07 11:10:48;;;;;;;3.40;1.20;;;;;;;5.54;100.00;98800.31;181755;1256;43008;-57
2024/02/07 11:15:03;;;;;;;4.10;0.90;;;;;;;5.48;100.00;98805.36;181509;1257;43301;-58
2024/02/07 11:19:07;;;;;;;2.80;1.10;;;;;;;5.56;100.00;98807.54;181690;1257;43793;-58
2024/02/07 11:23:30;;;;;;;3.40;0.90;;;;;;;5.51;100.00;98809.31;182122;1256;58003;-58
2024/02/07 11:27:40;;;;;;;1.40;0.80;;;;;;;5.50;100.00;98811.53;181870;1256;43823;-57
2024/02/07 11:31:57;;;;;;;2.80;1.10;;;;;;;5.41;100.00;98820.58;181757;1256;43840;-56
2024/02/07 11:36:16;;;;;;;1.20;0.70;;;;;;;5.40;100.00;98820.27;181750;1256;43341;-56
2024/02/07 11:40:23;;;;;;;3.70;0.70;;;;;;;5.32;100.00;98830.31;181882;1256;43073;-58
2024/02/07 11:44:52;;;;;;;8.10;2.20;;;;;;;5.28;100.00;98834.26;182194;1257;58146;-57
2024/02/07 11:49:00;;;;;;;9.10;2.30;;;;;;;5.30;100.00;98832.55;182130;1256;43178;-56
2024/02/07 11:53:04;;;;;;;2.80;0.90;;;;;;;5.30;100.00;98832.70;181860;1256;43991;-58
2024/02/07 11:57:09;;;;;;;4.30;1.10;;;;;;;5.27;100.00;98844.60;181850;1258;43814;-57
2024/02/07 12:01:13;;;;;;;2.50;0.90;;;;;;;5.24;100.00;98850.20;181728;1257;43751;-59
2024/02/07 12:05:20;;;;;;;;;;;;;;;5.30;100.00;98847.48;182124;1258;59469;-57
2024/02/07 12:09:28;;;;;;;2.70;1.10;;;;;;;5.42;100.00;98844.92;181604;1253;94619;-80
2024/02/07 12:13:33;;;;;;;3.80;2.10;;;;;;;5.60;100.00;98849.73;181318;1254;44219;-80
2024/02/07 12:17:36;;;;;;;1.00;0.90;;;;;;;5.63;100.00;98845.80;181462;1257;43881;-81
2024/02/07 12:21:40;;;;;;;1.20;1.10;;;;;;;5.54;100.00;98838.81;181349;1257;43918;-82
2024/02/07 12:25:43;;;;;;;4.60;1.20;;;;;;;5.71;100.00;98844.06;181558;1254;59244;-82
2024/02/07 12:29:51;;;;;;;3.10;1.90;;;;;;;5.89;100.00;98837.45;181443;1256;44060;-83
2024/02/07 12:33:55;;;;;;;3.00;0.80;;;;;;;6.04;100.00;98843.66;181287;1254;44060;-82
2024/02/07 12:38:00;;;;;;;1.20;0.80;;;;;;;5.98;100.00;98845.33;181358;1255;44028;-82
2024/02/07 12:42:05;;;;;;;1.20;1.00;;;;;;;6.04;100.00;98845.91;181285;1254;44024;-82
2024/02/07 12:46:09;;;;;;;2.20;0.70;;;;;;;6.09;100.00;98830.52;181408;1255;60054;-82
2024/02/07 12:50:12;;;;;;;1.80;0.70;;;;;;;6.15;100.00;98826.87;181323;1254;44014;-82
2024/02/07 12:54:15;;;;;;;2.90;0.70;;;;;;;6.14;100.00;98833.92;181473;1256;44079;-83
2024/02/07 12:58:19;;;;;;;0.60;0.60;;;;;;;6.08;100.00;98832.71;181411;1254;44066;-82
2024/02/07 13:02:23;;;;;;;1.10;0.80;;;;;;;5.99;100.00;98826.94;181640;1255;44106;-83
2024/02/07 13:06:27;;;;;;;0.90;0.70;;;;;;;6.02;100.00;98823.23;181249;1256;58223;-82
2024/02/07 13:10:31;;;;;;;2.50;1.10;;;;;;;6.05;100.00;98812.94;181441;1255;43930;-83
2024/02/07 13:14:37;;;;;;;2.40;0.70;;;;;;;6.03;100.00;98810.79;181476;1253;44317;-83
2024/02/07 13:18:41;;;;;;;1.40;0.90;;;;;;;6.07;100.00;98811.14;181475;1254;44068;-82
2024/02/07 13:22:44;;;;;;;1.90;0.70;;;;;;;6.06;100.00;98806.85;181599;1254;43839;-83
2024/02/07 13:26:50;;;;;;;3.10;0.80;;;;;;;6.13;100.00;98806.72;181391;1254;59496;-83
2024/02/07 13:30:53;;;;;;;1.10;0.80;;;;;;;6.13;100.00;98808.86;181568;1256;44586;-83
2024/02/07 13:34:57;;;;;;;1.20;1.10;;;;;;;6.15;100.00;98810.81;181300;1255;44012;-83
2024/02/07 13:39:00;;;;;;;1.50;0.60;;;;;;;6.18;100.00;98813.05;181516;1257;44210;-80
2024/02/07 13:43:05;;;;;;;4.80;1.00;;;;;;;6.14;100.00;98815.45;181581;1254;43970;-83
2024/02/07 13:47:09;;;;;;;1.20;1.10;;;;;;;6.08;100.00;98809.45;181472;1254;58153;-83
2024/02/07 13:51:12;;;;;;;1.70;1.50;;;;;;;6.08;100.00;98818.30;181429;1254;43946;-83
2024/02/07 13:55:16;;;;;;;1.50;1.00;;;;;;;6.01;100.00;98821.72;181393;1255;44413;-83
2024/02/07 13:59:19;;;;;;;2.20;1.00;;;;;;;6.09;100.00;98830.13;181395;1257;44118;-83
2024/02/07 14:03:22;;;;;;;2.10;1.70;;;;;;;6.04;100.00;98840.41;181523;1256;44222;-83
2024/02/07 14:07:30;;;;;;;1.50;1.10;;;;;;;5.95;100.00;98854.55;181368;1257;59238;-83
2024/02/07 14:11:40;;;;;;;2.00;1.60;;;;;;;5.99;100.00;98860.23;181597;1254;43916;-83
2024/02/07 14:15:44;;;;;;;2.40;1.30;;;;;;;5.89;100.00;98853.67;181395;1256;43885;-83
2024/02/07 14:19:47;;;;;;;2.40;1.60;;;;;;;5.85;100.00;98856.30;181573;1254;44130;-83
2024/02/07 14:23:50;;;;;;;2.60;1.20;;;;;;;5.85;100.00;98859.46;181395;1257;43968;-83
2024/02/07 14:27:53;;;;;;;2.00;1.50;;;;;;;5.82;100.00;98862.49;181630;1254;57677;-83
2024/02/07 14:31:56;;;;;;;5.20;2.20;;;;;;;5.73;100.00;98869.79;181594;1256;43901;-85
2024/02/07 14:36:00;;;;;;;4.00;1.90;;;;;;;5.67;100.00;98879.11;181675;1254;44108;-83
2024/02/07 14:40:04;;;;;;;2.60;1.70;;;;;;;5.69;100.00;98885.20;181424;1254;44293;-83
2024/02/07 14:44:07;;;;;;;1.40;1.30;;;;;;;5.68;100.00;98896.41;181470;1254;44096;-83
2024/02/07 14:48:11;;;;;;;3.00;2.40;;;;;;;5.62;100.00;98893.05;181391;1254;58318;-83
2024/02/07 14:52:14;;;;;;;2.90;2.00;;;;;;;5.55;100.00;98892.34;181447;1256;44024;-83
2024/02/07 14:56:18;;;;;;;2.90;2.00;;;;;;;5.64;100.00;98894.14;181508;1254;43892;-82
2024/02/07 15:00:21;;;;;;;8.30;3.60;;;;;;;5.61;100.00;98894.00;181329;1256;44303;-82
2024/02/07 15:04:24;;;;;;;4.60;3.60;;;;;;;5.48;100.00;98898.23;181575;1255;44151;-83
2024/02/07 15:08:27;;;;;;;9.60;4.20;;;;;;;5.51;100.00;98909.09;181329;1255;58228;-83
2024/02/07 15:12:31;;;;;;;4.10;2.10;;;;;;;5.40;100.00;98925.64;181569;1254;43938;-83
2024/02/07 15:16:35;;;;;;;4.30;2.20;;;;;;;5.33;100.00;98931.45;181373;1254;44217;-84
2024/02/07 15:20:38;;;;;;;3.80;2.60;;;;;;;5.24;100.00;98933.91;181477;1254;44016;-84
2024/02/07 15:24:41;;;;;;;5.70;2.60;;;;;;;5.22;100.00;98941.49;181408;1258;44054;-84
2024/02/07 15:28:44;;;;;;;4.60;3.00;;;;;;;5.14;100.00;98946.83;181159;1254;227752;-84
2024/02/07 15:32:47;;;;;;;9.00;2.50;;;;;;;5.24;100.00;98941.48;181600;1254;44357;-84
2024/02/07 15:36:51;;;;;;;5.70;3.60;;;;;;;5.20;100.00;98945.70;181584;1254;43937;-84
2024/02/07 15:40:55;;;;;;;4.90;3.40;;;;;;;5.13;100.00;98953.42;181392;1254;44063;-84
2024/02/07 15:44:58;;;;;;;3.90;2.80;;;;;;;5.02;100.00;98943.36;181520;1253;44184;-84
2024/02/07 15:49:01;;;;;;;7.10;3.30;;;;;;;4.99;100.00;98948.41;181370;1254;61956;-83
2024/02/07 15:53:12;;;;;;;9.10;5.40;;;;;;;4.99;100.00;98956.17;181526;1253;43825;-83
2024/02/07 15:57:15;;;;;;;5.00;4.10;;;;;;;4.94;100.00;98967.02;181667;1254;43903;-84
2024/02/07 16:01:19;;;;;;;9.30;3.10;;;;;;;4.94;100.00;98970.40;181539;1254;44274;-84
2024/02/07 16:05:34;;;;;;;5.80;4.50;;;;;;;4.82;100.00;98961.65;181407;1254;43858;-83
2024/02/07 16:09:38;;;;;;;3.60;3.30;;;;;;;4.80;100.00;98956.91;181543;1253;59057;-84
2024/02/07 16:13:42;;;;;;;5.90;3.30;;;;;;;4.71;100.00;98962.52;181657;1253;43707;-84
2024/02/07 16:17:45;;;;;;;6.80;3.10;;;;;;;4.73;100.00;98962.89;181651;1254;43896;-83
2024/02/07 16:21:48;;;;;;;6.50;4.30;;;;;;;4.70;100.00;98970.71;181517;1254;43866;-83
2024/02/07 16:25:51;;;;;;;4.90;3.10;;;;;;;4.75;100.00;98970.52;181419;1254;44127;-82
2024/02/07 16:29:56;;;;;;;8.90;3.80;;;;;;;4.73;100.00;98975.73;181462;1254;59571;-83
2024/02/07 16:33:59;;;;;;;8.80;3.20;;;;;;;4.66;100.00;98975.25;181262;1254;44059;-83
2024/02/07 16:38:02;;;;;;;5.10;3.60;;;;;;;4.69;100.00;98972.86;181326;1256;44136;-83
2024/02/07 16:42:06;;;;;;;7.90;5.10;;;;;;;4.66;100.00;98984.65;181473;1253;43952;-83
2024/02/07 16:46:09;;;;;;;11.80;7.40;;;;;;;4.63;100.00;98985.08;181340;1254;44087;-83
2024/02/07 16:50:13;;;;;;;9.20;3.90;;;;;;;4.65;100.00;98991.95;181348;1254;58231;-81
2024/02/07 16:54:16;;;;;;;10.90;5.50;;;;;;;4.66;100.00;98995.18;181432;1253;44245;-83
2024/02/07 16:58:19;;;;;;;7.20;5.00;;;;;;;4.73;100.00;98994.16;181498;1255;44252;-83
2024/02/07 17:02:22;;;;;;;6.30;5.50;;;;;;;4.79;100.00;99005.13;181663;1254;43716;-83
2024/02/07 17:06:26;;;;;;;8.90;4.80;;;;;;;4.83;100.00;99005.48;181355;1253;44212;-83
2024/02/07 17:10:29;;;;;;;6.90;4.20;;;;;;;4.81;100.00;99015.85;181626;1254;58640;-83
2024/02/07 17:14:32;;;;;;;9.00;4.80;;;;;;;4.77;100.00;99016.50;181327;1256;43752;-83
2024/02/07 17:18:35;;;;;;;8.30;5.60;;;;;;;4.82;100.00;99021.74;181654;1255;43960;-82
2024/02/07 17:22:38;;;;;;;9.10;4.80;;;;;;;4.84;100.00;99024.75;181460;1255;44163;-83
2024/02/07 17:26:42;;;;;;;10.50;5.10;;;;;;;4.88;100.00;99036.52;181386;1254;44167;-83
2024/02/07 17:30:45;;;;;;;7.40;4.30;;;;;;;4.84;100.00;99037.25;181648;1254;58218;-82
2024/02/07 17:34:48;;;;;;;9.40;5.00;;;;;;;4.81;100.00;99036.73;181597;1254;44033;-83
2024/02/07 17:38:53;;;;;;;9.60;5.30;;;;;;;4.83;100.00;99038.90;181412;1255;44031;-82
2024/02/07 17:42:56;;;;;;;6.60;4.90;;;;;;;4.73;100.00;99044.73;181504;1254;44270;-82
2024/02/07 17:47:01;;;;;;;10.30;3.50;;;;;;;4.72;100.00;99045.84;181442;1255;44251;-83
2024/02/07 17:51:04;;;;;;;12.60;5.30;;;;;;;4.79;100.00;99044.11;181633;1255;58053;-82
2024/02/07 17:55:08;;;;;;;7.60;3.60;;;;;;;4.86;100.00;99048.64;181653;1254;43789;-82
2024/02/07 17:59:11;;;;;;;11.20;5.10;;;;;;;4.90;100.00;99049.38;181432;1255;44019;-82
2024/02/07 18:03:14;;;;;;;4.70;3.60;;;;;;;4.89;100.00;99048.27;181646;1254;44409;-83
2024/02/07 18:07:18;;;;;;;9.30;5.00;;;;;;;4.91;100.00;99047.40;181358;1256;44367;-82
2024/02/07 18:11:23;;;;;;;22.80;4.90;;;;;;;4.90;100.00;99045.53;181416;1253;58635;-82
2024/02/07 18:15:26;;;;;;;13.20;4.90;;;;;;;4.88;100.00;99051.65;181390;1254;44281;-83
2024/02/07 18:19:30;;;;;;;6.10;3.10;;;;;;;4.93;100.00;99054.83;181457;1253;44821;-82
2024/02/07 18:23:34;;;;;;;12.60;5.40;;;;;;;4.84;100.00;99062.48;181622;1253;44029;-83
2024/02/07 18:27:37;;;;;;;6.90;4.00;;;;;;;4.83;100.00;99066.64;181381;1254;43806;-82
2024/02/07 18:31:41;;;;;;;10.90;4.20;;;;;;;4.82;100.00;99064.05;181635;1254;58209;-83
2024/02/07 18:35:44;;;;;;;12.30;5.40;;;;;;;4.91;100.00;99057.95;181485;1254;46109;-82
2024/02/07 18:39:47;;;;;;;5.80;3.70;;;;;;;4.92;100.00;99059.83;181596;1254;43822;-82
2024/02/07 18:43:50;;;;;;;14.90;4.60;;;;;;;4.89;100.00;99065.66;181573;1254;44131;-82
2024/02/07 18:47:54;;;;;;;9.80;5.80;;;;;;;4.88;100.00;99067.83;181376;1253;44333;-82
2024/02/07 18:51:57;;;;;;;5.60;4.10;;;;;;;4.92;100.00;99072.29;181413;1254;58435;-82
2024/02/07 18:56:00;;;;;;;7.90;5.00;;;;;;;4.88;100.00;99071.88;181391;1254;43886;-83
2024/02/07 19:00:07;;;;;;;5.80;3.20;;;;;;;4.85;100.00;99063.69;181427;1254;43805;-83
2024/02/07 19:04:11;;;;;;;6.80;3.20;;;;;;;4.86;100.00;99070.42;181629;1255;43762;-81
2024/02/07 19:08:14;;;;;;;6.60;3.40;;;;;;;4.82;100.00;99076.58;181359;1254;44001;-82
2024/02/07 19:12:17;;;;;;;8.30;3.70;;;;;;;4.75;100.00;99086.23;181343;1254;58721;-82
2024/02/07 19:16:23;;;;;;;5.50;3.50;;;;;;;4.74;100.00;99084.77;181319;1253;43766;-82
2024/02/07 19:20:26;;;;;;;9.20;3.50;;;;;;;4.68;100.00;99092.89;181659;1254;44041;-82
2024/02/07 19:24:30;;;;;;;7.10;4.00;;;;;;;4.61;100.00;99091.14;181341;1256;44388;-82
2024/02/07 19:28:35;;;;;;;6.20;4.10;;;;;;;4.54;100.00;99092.20;181431;1255;44005;-82
2024/02/07 19:32:39;;;;;;;6.70;4.50;;;;;;;4.50;100.00;99101.60;181446;1254;57563;-82
2024/02/07 19:36:42;;;;;;;6.80;3.40;;;;;;;4.45;100.00;99104.10;181397;1254;43690;-82
2024/02/07 19:40:45;;;;;;;7.00;3.80;;;;;;;4.42;100.00;99106.61;181453;1254;43724;-82
2024/02/07 19:44:49;;;;;;;7.40;3.90;;;;;;;4.35;100.00;99120.09;181595;1255;44246;-82
2024/02/07 19:48:52;;;;;;;4.80;2.70;;;;;;;4.33;100.00;99112.56;181632;1254;44067;-83
2024/02/07 19:52:55;;;;;;;5.20;2.90;;;;;;;4.29;100.00;99114.61;181436;1254;57998;-82
2024/02/07 19:56:59;;;;;;;7.50;3.80;;;;;;;4.26;100.00;99116.23;181311;1253;43850;-82